Time;durP1;ratioP1;P1;durP2;ratioP2;P2;SDS_P1;SDS_P2;PMS_P1;PMS_P2;Temp;Humidity;BMP_temperature;BMP_pressure;BME280_temperature;BME280_humidity;BME280_pressure;Samples;Min_cycle;Max_cycle;Signal;HPM_P1;HPM_P2
2021/01/15 00:04:30;;;;;;;5.60;1.92;;;20.30;44.70;;;;;;20756161;28;20026;-14
2021/01/15 00:14:30;;;;;;;5.78;2.42;;;20.30;44.70;;;;;;20744799;28;20046;-14
2021/01/15 00:24:31;;;;;;;3.10;2.05;;;20.10;44.80;;;;;;20743562;28;20504;-14
2021/01/15 00:34:32;;;;;;;5.32;2.10;;;20.00;44.80;;;;;;20743817;28;20040;-14
2021/01/15 00:44:32;;;;;;;3.42;1.98;;;20.00;44.90;;;;;;20743246;28;20029;-14
2021/01/15 00:54:33;;;;;;;5.53;2.35;;;19.90;44.90;;;;;;20739280;28;20026;-14
2021/01/15 01:04:33;;;;;;;6.60;2.20;;;19.80;44.90;;;;;;20738800;28;20076;-14
2021/01/15 01:14:34;;;;;;;6.82;2.30;;;19.80;45.10;;;;;;20738626;28;20053;-14
2021/01/15 01:24:34;;;;;;;3.25;2.15;;;19.70;45.00;;;;;;20717480;28;20113;-14
2021/01/15 01:34:35;;;;;;;4.18;2.05;;;19.70;45.00;;;;;;20664160;28;20501;-14
2021/01/15 01:44:35;;;;;;;3.20;2.13;;;19.60;45.00;;;;;;20669900;28;20066;-14
2021/01/15 01:54:36;;;;;;;2.90;1.90;;;19.60;45.00;;;;;;20655500;28;20061;-14
2021/01/15 02:04:37;;;;;;;3.22;2.08;;;19.50;45.20;;;;;;20720910;28;20026;-15
2021/01/15 02:15:05;;;;;;;3.15;1.95;;;19.50;44.80;;;;;;20736013;28;20037;-15
2021/01/15 02:25:25;;;;;;;6.28;1.98;;;19.60;44.40;;;;;;20735227;28;20026;-14
2021/01/15 02:35:34;;;;;;;3.10;1.98;;;19.40;44.50;;;;;;20712692;28;20546;-14
2021/01/15 02:45:35;;;;;;;3.15;2.05;;;19.40;44.60;;;;;;20738698;28;20049;-14
2021/01/15 02:55:36;;;;;;;3.28;1.80;;;19.30;44.60;;;;;;20748782;28;20029;-14
2021/01/15 03:05:41;;;;;;;4.50;2.03;;;19.10;44.90;;;;;;20747848;28;20034;-14
2021/01/15 03:15:42;;;;;;;2.42;1.42;;;19.00;44.90;;;;;;20747303;28;20530;-14
2021/01/15 03:25:43;;;;;;;2.72;1.80;;;19.00;44.90;;;;;;20746131;28;20432;-15
2021/01/15 03:35:43;;;;;;;3.95;2.22;;;18.90;45.00;;;;;;20746253;28;20033;-15
2021/01/15 03:45:53;;;;;;;3.30;1.75;;;18.80;44.90;;;;;;20745735;28;20108;-15
2021/01/15 03:55:54;;;;;;;3.03;1.85;;;18.80;44.70;;;;;;20744442;28;20036;-13
2021/01/15 04:05:54;;;;;;;3.67;1.90;;;18.70;44.80;;;;;;20745304;28;20041;-13
2021/01/15 04:15:55;;;;;;;3.17;1.70;;;18.70;44.80;;;;;;20744387;28;20112;-14
2021/01/15 04:25:55;;;;;;;2.67;1.92;;;18.60;44.90;;;;;;20743398;28;20097;-15
2021/01/15 04:35:56;;;;;;;2.42;1.70;;;18.60;44.90;;;;;;20741783;28;20543;-14
2021/01/15 04:45:57;;;;;;;3.08;1.70;;;18.50;45.00;;;;;;20740646;28;20463;-14
2021/01/15 04:55:59;;;;;;;2.28;1.50;;;18.50;45.00;;;;;;20739906;28;20099;-14
2021/01/15 05:06:00;;;;;;;2.30;1.60;;;18.40;44.90;;;;;;20739151;28;20055;-14
2021/01/15 05:16:02;;;;;;;2.55;1.50;;;18.40;44.90;;;;;;20738656;28;20105;-15
2021/01/15 05:26:02;;;;;;;2.33;1.35;;;18.60;44.70;;;;;;20737796;28;20029;-15
2021/01/15 05:36:03;;;;;;;2.38;1.35;;;19.10;43.50;;;;;;20737209;28;20662;-15
2021/01/15 05:46:11;;;;;;;1.60;1.10;;;19.80;42.20;;;;;;20735946;28;20034;-15
2021/01/15 05:56:11;;;;;;;2.45;1.63;;;20.40;41.00;;;;;;20735809;28;20029;-15
2021/01/15 06:06:12;;;;;;;1.77;1.05;;;21.00;39.90;;;;;;20736084;28;20160;-15
2021/01/15 06:16:18;;;;;;;1.63;1.00;;;21.50;39.00;;;;;;20735125;28;20034;-14
2021/01/15 06:26:50;;;;;;;2.45;1.10;;;22.00;38.20;;;;;;20748361;28;20030;-15
2021/01/15 06:36:53;;;;;;;2.00;1.23;;;22.50;37.50;;;;;;20745808;28;20072;-15
2021/01/15 06:46:55;;;;;;;3.15;1.50;;;22.80;37.00;;;;;;20748704;28;20488;-15
2021/01/15 06:57:13;;;;;;;3.67;1.80;;;22.90;36.80;;;;;;20749241;28;20167;-15
2021/01/15 07:07:15;;;;;;;5.00;1.77;;;22.50;36.60;;;;;;20749360;28;20084;-15
2021/01/15 07:17:37;;;;;;;16.52;3.53;;;22.30;36.90;;;;;;20749036;28;20109;-15
2021/01/15 07:27:39;;;;;;;10.82;3.55;;;22.50;36.70;;;;;;20747897;28;20040;-15
2021/01/15 07:37:40;;;;;;;12.82;3.63;;;22.50;36.50;;;;;;20746823;28;20448;-15
2021/01/15 07:47:40;;;;;;;10.63;3.17;;;22.70;36.50;;;;;;20747699;28;20026;-15
2021/01/15 07:57:41;;;;;;;7.22;2.83;;;22.90;36.30;;;;;;20746496;28;20026;-15
2021/01/15 08:07:42;;;;;;;9.18;2.22;;;23.20;36.10;;;;;;20878934;23;20106;-15
2021/01/15 08:17:43;;;;;;;7.57;2.67;;;23.40;35.70;;;;;;20978626;28;20029;-15
2021/01/15 08:27:46;;;;;;;9.32;2.40;;;23.70;35.50;;;;;;20976929;28;20052;-15
2021/01/15 08:37:46;;;;;;;5.97;1.70;;;23.90;35.30;;;;;;20977680;28;20466;-15
2021/01/15 08:47:47;;;;;;;6.43;1.87;;;24.00;35.10;;;;;;20989104;28;20281;-15
2021/01/15 08:57:48;;;;;;;4.32;1.50;;;24.20;35.00;;;;;;20989671;28;20492;-15
2021/01/15 09:07:51;;;;;;;2.97;1.65;;;24.10;35.10;;;;;;20987288;28;20067;-15
2021/01/15 09:17:56;;;;;;;4.95;2.22;;;23.90;35.50;;;;;;20974145;28;20033;-15
2021/01/15 09:27:56;;;;;;;2.35;1.20;;;23.90;35.40;;;;;;20975593;28;20064;-15
2021/01/15 09:37:57;;;;;;;4.20;2.08;;;23.70;35.90;;;;;;20972939;28;20479;-15
2021/01/15 09:47:57;;;;;;;4.97;1.85;;;23.50;36.20;;;;;;20985441;28;20075;-15
2021/01/15 09:57:58;;;;;;;4.40;2.45;;;23.30;36.50;;;;;;20995640;28;20031;-15
2021/01/15 10:07:59;;;;;;;9.02;1.90;;;23.40;36.80;;;;;;21002480;28;20119;-15
2021/01/15 10:17:59;;;;;;;9.13;1.65;;;23.20;37.20;;;;;;21000954;28;20029;-15
2021/01/15 10:28:00;;;;;;;5.18;1.48;;;23.30;37.20;;;;;;21007088;28;20024;-15
2021/01/15 10:38:00;;;;;;;6.70;2.13;;;23.40;36.60;;;;;;20997426;28;20033;-14
2021/01/15 10:48:03;;;;;;;9.50;2.28;;;23.30;36.80;;;;;;20998512;28;20470;-14
2021/01/15 10:58:05;;;;;;;5.90;2.70;;;23.30;36.90;;;;;;20998437;28;20170;-15
2021/01/15 11:08:06;;;;;;;5.30;2.13;;;23.40;36.60;;;;;;21002410;28;20032;-14
2021/01/15 11:18:06;;;;;;;5.88;2.33;;;23.20;36.80;;;;;;20997171;28;20105;-15
2021/01/15 11:28:07;;;;;;;5.22;2.22;;;23.30;36.70;;;;;;20998987;28;20040;-15
2021/01/15 11:38:07;;;;;;;4.90;2.47;;;23.40;36.60;;;;;;20997856;28;20411;-15
2021/01/15 11:48:08;;;;;;;3.95;2.00;;;23.40;36.60;;;;;;20996279;28;20436;-16
2021/01/15 11:58:08;;;;;;;5.80;2.30;;;23.30;36.90;;;;;;21006461;28;20036;-15
2021/01/15 12:08:09;;;;;;;10.20;2.67;;;23.40;37.20;;;;;;20994755;28;20032;-15
2021/01/15 12:18:12;;;;;;;5.20;1.80;;;23.50;36.80;;;;;;20993803;28;20501;-14
2021/01/15 12:28:14;;;;;;;11.75;2.75;;;23.30;37.00;;;;;;20989534;28;20437;-15
2021/01/15 12:38:20;;;;;;;4.70;2.00;;;23.50;37.00;;;;;;20990193;28;20021;-15
2021/01/15 12:48:21;;;;;;;6.13;1.67;;;23.50;37.10;;;;;;20998383;28;20398;-15
2021/01/15 12:58:21;;;;;;;8.75;2.10;;;23.40;37.40;;;;;;20991345;28;20028;-14
2021/01/15 13:08:22;;;;;;;3.80;1.75;;;23.30;37.50;;;;;;20989009;28;20032;-15
2021/01/15 13:18:22;;;;;;;4.97;1.63;;;23.20;37.70;;;;;;20988911;28;20032;-15
2021/01/15 13:28:23;;;;;;;3.28;1.52;;;23.30;37.60;;;;;;20987509;28;20055;-15
2021/01/15 13:38:24;;;;;;;3.25;1.77;;;23.20;38.30;;;;;;20987987;28;20040;-15
2021/01/15 13:48:25;;;;;;;5.20;1.88;;;23.30;37.70;;;;;;20986350;28;20036;-15
2021/01/15 13:58:26;;;;;;;3.22;1.58;;;23.20;38.10;;;;;;20987313;28;20028;-15
2021/01/15 14:08:26;;;;;;;5.30;1.77;;;23.20;38.00;;;;;;20986824;28;20048;-14
2021/01/15 14:18:27;;;;;;;3.08;1.45;;;23.10;38.10;;;;;;20960885;28;20025;-16
2021/01/15 14:28:27;;;;;;;4.40;1.40;;;23.10;38.10;;;;;;20963292;28;20033;-14
2021/01/15 14:38:28;;;;;;;5.32;1.60;;;23.20;37.80;;;;;;20959375;28;20116;-14
2021/01/15 14:48:28;;;;;;;3.78;1.15;;;23.10;38.00;;;;;;20973776;28;20029;-13
2021/01/15 14:58:29;;;;;;;3.97;1.90;;;23.30;37.70;;;;;;20960698;28;20104;-14
2021/01/15 15:08:29;;;;;;;2.22;1.23;;;23.10;37.90;;;;;;20958954;28;20482;-14
2021/01/15 15:18:30;;;;;;;2.30;1.30;;;23.10;37.60;;;;;;20961783;28;20509;-16
2021/01/15 15:28:32;;;;;;;4.60;1.27;;;23.10;37.70;;;;;;20957769;28;20035;-15
2021/01/15 15:38:33;;;;;;;2.45;1.38;;;23.20;37.70;;;;;;20948060;28;20086;-15
2021/01/15 15:48:33;;;;;;;5.70;1.70;;;23.20;37.70;;;;;;20954962;28;20359;-14
2021/01/15 15:58:34;;;;;;;7.40;1.83;;;23.00;37.70;;;;;;20936049;28;20372;-14
2021/01/15 16:08:34;;;;;;;5.07;1.77;;;23.10;38.50;;;;;;20946151;28;20033;-14
2021/01/15 16:18:35;;;;;;;8.57;1.52;;;23.00;40.00;;;;;;20955673;28;20454;-14
2021/01/15 16:28:35;;;;;;;5.63;1.85;;;23.10;40.80;;;;;;20958562;28;20067;-14
2021/01/15 16:38:36;;;;;;;8.68;1.80;;;23.00;41.40;;;;;;20979230;28;20649;-14
2021/01/15 16:48:37;;;;;;;6.40;1.80;;;23.00;41.50;;;;;;20956270;28;20034;-15
2021/01/15 16:58:37;;;;;;;2.25;1.52;;;23.00;41.60;;;;;;20989452;28;20440;-14
2021/01/15 17:08:38;;;;;;;4.72;1.63;;;23.00;41.80;;;;;;20956052;28;20032;-15
2021/01/15 17:18:40;;;;;;;2.95;1.35;;;23.00;41.70;;;;;;20976608;28;20029;-15
2021/01/15 17:28:41;;;;;;;3.03;1.50;;;22.90;41.80;;;;;;20960466;28;20126;-13
2021/01/15 17:38:41;;;;;;;3.65;1.50;;;22.90;42.40;;;;;;20954171;28;20040;-14
2021/01/15 17:48:47;;;;;;;7.30;2.10;;;23.00;42.30;;;;;;20947456;28;20036;-14
2021/01/15 17:58:48;;;;;;;5.68;3.22;;;22.90;42.50;;;;;;20955402;28;20079;-15
2021/01/15 18:08:48;;;;;;;6.13;3.10;;;22.70;40.90;;;;;;20955451;28;20033;-15
2021/01/15 18:18:51;;;;;;;7.82;3.05;;;22.60;40.90;;;;;;20957005;28;20120;-15
2021/01/15 18:28:52;;;;;;;12.10;4.75;;;22.70;39.70;;;;;;20965684;28;20093;-15
2021/01/15 18:38:52;;;;;;;9.40;4.93;;;23.20;39.30;;;;;;20978806;28;20115;-15
2021/01/15 18:48:53;;;;;;;7.65;4.32;;;23.70;41.20;;;;;;20970298;28;20027;-15
2021/01/15 18:58:53;;;;;;;6.90;3.60;;;24.10;41.90;;;;;;20983127;28;20123;-16
2021/01/15 19:08:54;;;;;;;14.70;5.65;;;24.30;41.50;;;;;;20965588;28;20036;-15
2021/01/15 19:18:55;;;;;;;12.48;4.47;;;24.10;41.80;;;;;;20961163;28;20075;-15
2021/01/15 19:28:55;;;;;;;12.47;5.80;;;24.00;42.00;;;;;;20956184;28;20218;-15
2021/01/15 19:38:56;;;;;;;11.40;4.57;;;23.70;42.60;;;;;;20958224;28;20466;-14
2021/01/15 19:48:56;;;;;;;28.48;5.97;;;23.60;42.40;;;;;;20981203;28;20394;-15
2021/01/15 19:58:57;;;;;;;10.88;4.25;;;23.30;43.10;;;;;;20976152;28;20116;-15
2021/01/15 20:08:57;;;;;;;6.55;4.03;;;23.30;43.00;;;;;;20939580;22;20132;-14
2021/01/15 20:18:58;;;;;;;11.05;4.35;;;23.20;42.90;;;;;;20874160;28;20029;-15
2021/01/15 20:28:58;;;;;;;12.90;4.13;;;23.10;42.90;;;;;;20895756;28;20116;-15
2021/01/15 20:38:59;;;;;;;11.65;3.75;;;23.20;42.70;;;;;;20907027;28;20118;-15
2021/01/15 20:48:59;;;;;;;7.47;3.50;;;23.30;42.40;;;;;;20894520;28;20110;-15
2021/01/15 20:59:00;;;;;;;8.57;3.63;;;23.30;42.50;;;;;;20905393;28;20439;-15
2021/01/15 21:09:00;;;;;;;9.98;3.90;;;23.40;42.10;;;;;;20904970;28;20395;-15
2021/01/15 21:19:01;;;;;;;8.93;4.18;;;23.20;42.30;;;;;;20892462;28;20415;-15
2021/01/15 21:29:07;;;;;;;10.77;3.58;;;23.20;42.30;;;;;;20903351;28;20028;-15
2021/01/15 21:39:10;;;;;;;7.35;3.05;;;23.20;42.30;;;;;;20900215;28;20083;-15
2021/01/15 21:49:12;;;;;;;7.65;3.63;;;23.00;43.00;;;;;;20897007;28;20025;-15
2021/01/15 21:59:13;;;;;;;14.10;3.55;;;23.30;43.80;;;;;;20900572;28;20108;-15
2021/01/15 22:09:14;;;;;;;10.93;3.33;;;23.70;43.50;;;;;;20901233;28;20033;-15
2021/01/15 22:19:15;;;;;;;9.02;3.42;;;24.00;43.20;;;;;;20880575;28;20501;-15
2021/01/15 22:29:15;;;;;;;9.00;2.47;;;23.80;43.40;;;;;;20896649;28;20044;-15
2021/01/15 22:39:16;;;;;;;7.85;2.65;;;23.60;43.50;;;;;;20881377;28;20025;-15
2021/01/15 22:49:16;;;;;;;10.57;3.07;;;23.50;43.40;;;;;;20873739;28;20144;-14
2021/01/15 22:59:17;;;;;;;5.28;2.22;;;23.30;43.30;;;;;;20871401;28;20467;-14
2021/01/15 23:09:17;;;;;;;6.77;2.33;;;23.00;43.60;;;;;;20886515;28;20031;-14
2021/01/15 23:19:18;;;;;;;8.32;2.28;;;22.70;43.90;;;;;;20886711;28;20451;-14
2021/01/15 23:29:18;;;;;;;5.97;2.67;;;22.40;44.20;;;;;;20875358;28;20057;-14
2021/01/15 23:39:19;;;;;;;4.53;1.92;;;22.10;44.70;;;;;;20874577;28;20128;-14
2021/01/15 23:49:19;;;;;;;6.32;2.30;;;21.80;44.90;;;;;;20867279;28;20026;-15
2021/01/15 23:59:20;;;;;;;3.45;1.95;;;21.50;45.30;;;;;;20877926;28;20033;-14
